• Join FlightAware (Why Join?)
  • Login
  • US Flag 
06:31PM EDT


 

Airport Tracker/Info


-or-


 

Live Flight TrackerFlight Track Log ✈ N4698A ✈ 29-Sep-2013 ✈ KWBW - KHPN

Flight Track Log - Related Links

Times and Time Zones

All times are in EDT time to prevent confusion due to time zone crossing. See the N4698A flight status page for this flight to view local times or setup timezone preferences in your user account.

Time Position Orientation Groundspeed Altitude Reporting Facility
EDT Latitude Longitude Course Direction KTS MPH feet Rate Location/Type
11:54AM 41.2092 -74.9328 102° East 173 199 9,600  Level New York Center
11:55AM 41.1989 -74.8658 102° East 178 205 9,600  Level New York Center
11:56AM 41.1947 -74.8078 95° East 178 205 9,600  Level New York Center
11:57AM 41.1864 -74.7411 99° East 173 199 9,600  Level New York Center
11:58AM 41.1800 -74.6828 98° East 167 192 9,600  Level New York Center
11:59AM 41.1719 -74.6133 99° East 167 192 9,600 -60 Level New York Center
12:00PM 41.1675 -74.5608 96° East 167 192 9,500 -60 Descending New York Center
12:01PM 41.1592 -74.4914 99° East 162 186 9,500 60 Level New York Center
12:01PM 41.1500 -74.4500 106° East 170 196 9,600 60 Climbing New York TRACON
12:02PM 41.1500 -74.4000 90° East 171 197 9,600 -120 Level New York TRACON
12:03PM 41.1444 -74.3667 102° East 162 186 9,500 -120 Descending New York Center
12:04PM 41.1378 -74.3111 99° East 162 186 9,500  Level New York Center
12:05PM 41.1294 -74.2419 99° East 162 186 9,500  Level New York Center
12:06PM 41.1228 -74.1811 98° East 162 186 9,500 -120 Level New York Center
12:06PM 41.1167 -74.1500 105° East 174 200 9,400 -480 Descending New York TRACON
12:07PM 41.1167 -74.0667 90° East 189 217 8,800 -780 Descending New York TRACON
12:08PM 41.1167 -74.0000 90° East 199 229 7,900 -960 Descending New York TRACON
12:09PM 41.1167 -73.9333 90° East 204 235 6,900 -1,020 Descending New York TRACON
12:10PM 41.1333 -73.8667 72° East 195 224 6,000 -1,260 Descending New York TRACON
12:11PM 41.1667 -73.8000 56° Northeast 199 229 4,400 -1,440 Descending New York TRACON
12:12PM 41.2000 -73.7667 37° Northeast 200 230 3,200 -840 Descending New York TRACON
12:13PM 41.2333 -73.7333 37° Northeast 168 193 2,900 -480 Descending New York TRACON
12:14PM 41.2167 -73.7833 246° West 174 200 2,300 -300 Descending New York TRACON
12:15PM 41.1667 -73.7667 166° South 153 176 2,300 -180 Level New York TRACON
12:16PM 41.1333 -73.7500 159° South 148 170 2,000 -600 Descending New York TRACON
12:17PM 41.1000 -73.7333 159° South 130 150 1,200 -900 Descending New York TRACON
12:19PM 41.0667 -73.7000 90° East  Level FlightAware Approximate
12:26PM 41.0669 -73.7076 90° East  Level Estimated
12:27PM 41.0667 -73.7000 90° East  Level FlightAware Approximate
12:28PM 41.0669 -73.7076 90° East  Level Estimated